EW4164 Weather Reports


time (UTC)temp
C
wind
direction
speed
KPH
gust
KPH
rain 1hr
cm
rain 24hr
cm
rain mn
cm
humidity
%
barometer
mb
20200227123215 1 218 3.2 8.0 0.08 0.10 0.10 91 995.5
20200227123042 1 218 1.6 8.0 0.08 0.10 0.10 91 996.7
20200227122711 1 226 3.2 8.0 0.08 0.10 0.10 90 996.0
20200227122207 1 233 3.2 11.3 0.10 0.10 0.10 90 996.2
20200227121707 1 228 4.8 12.9 0.10 0.10 0.10 90 996.4
20200227121608 1 201 1.6 11.3 0.10 0.10 0.10 90 997.4
20200227121227 1 183 6.4 12.9 0.10 0.10 0.10 90 996.7
20200227120717 2 200 6.4 16.1 0.10 0.10 0.10 89 996.9
20200227120206 2 174 6.4 16.1 0.08 0.08 0.08 89 997.2
20200227120032 2 203 3.2 22.5 0.08 0.08 0.08 89 998.2
20200227115706 2 233 6.4 17.7 0.05 0.05 0.05 88 997.3
20200227115207 2 217 8.0 17.7 0.05 0.05 0.05 88 997.5
20200227114708 3 286 8.0 20.9 0.03 0.03 0.03 88 997.7
20200227114548 2 183 8.0 17.7 0.05 0.05 0.05 87 998.8
20200227114207 3 225 8.0 20.9 0.03 0.03 0.03 87 997.9
20200227113711 3 244 9.7 22.5 0.03 0.03 0.03 86 998.1
20200227113326 3 224 8.0 19.3 0.03 0.03 0.03 85 999.3
20200227113208 3 252 9.7 24.1 0.03 0.03 0.03 86 998.3
20200227112729 3 302 9.7 24.1 0.03 0.03 0.03 85 998.6
20200227112218 3 308 9.7 24.1 0.00 0.00 0.00 83 998.8
20200227111707 4 250 9.7 22.5 0.00 0.00 0.00 81 999.1
20200227111522 3 271 9.7 24.1 0.00 0.00 0.00 81 1000.1
20200227111234 4 217 9.7 20.9 0.00 0.00 0.00 80 999.3
20200227110714 4 271 8.0 17.7 0.00 0.00 0.00 80 999.5
20200227110207 4 215 8.0 14.5 0.00 0.00 0.00 80 999.6
20200227110026 4 254 6.4 16.1 0.00 0.00 0.00 81 1000.6
20200227105714 4 235 6.4 12.9 0.00 0.00 0.00 81 999.7
20200227105212 4 232 6.4 12.9 0.00 0.00 0.00 83 999.8
20200227104709 4 257 6.4 19.3 0.00 0.00 0.00 82 1000.1
20200227104639 4 239 4.8 12.9 0.00 0.00 0.00 82 1001.1
20200227104207 4 297 6.4 19.3 0.00 0.00 0.00 82 1000.2
20200227103720 4 269 8.0 19.3 0.00 0.00 0.00 82 1000.4
20200227103213 4 225 8.0 16.1 0.00 0.00 0.00 82 1000.7
20200227103033 4 198 4.8 16.1 0.00 0.00 0.00 82 1001.7
20200227102708 4 200 8.0 16.1 0.00 0.00 0.00 82 1000.9
20200227102209 4 219 8.0 14.5 0.00 0.00 0.00 82 1001.0
20200227101714 4 290 8.0 17.7 0.00 0.00 0.00 83 1001.2
20200227101608 4 257 4.8 14.5 0.00 0.00 0.00 83 1002.2
20200227101216 4 238 8.0 17.7 0.00 0.00 0.00 83 1001.5
20200227100731 4 226 6.4 17.7 0.00 0.00 0.00 83 1001.6
20200227100207 4 173 4.8 14.5 0.00 0.00 0.00 84 1001.8
20200227100145 4 293 3.2 12.9 0.00 0.00 0.00 84 1002.8
20200227095710 4 259 6.4 14.5 0.00 0.00 0.00 84 1001.9
20200227095207 4 208 6.4 14.5 0.00 0.00 0.00 84 1002.0
20200227094709 4 223 6.4 12.9 0.00 0.00 0.00 85 1002.2
20200227094524 3 194 4.8 12.9 0.00 0.00 0.00 85 1003.3
20200227094207 4 232 6.4 16.1 0.00 0.00 0.00 85 1002.4
20200227093719 4 244 6.4 16.1 0.00 0.00 0.00 85 1002.6
20200227093207 3 279 6.4 14.5 0.00 0.00 0.00 85 1002.7
20200227093009 3 199 6.4 14.5 0.00 0.00 0.00 85 1003.7
20200227092739 3 240 6.4 14.5 0.00 0.00 0.00 86 1002.8
20200227092208 3 237 6.4 14.5 0.00 0.00 0.00 86 1002.9
20200227091708 3 223 6.4 12.9 0.00 0.00 0.00 86 1003.1
20200227091207 3 250 4.8 11.3 0.00 0.00 0.00 86 1003.2
20200227090709 3 252 6.4 11.3 0.00 0.00 0.00 87 1003.4
20200227090207 3 228 6.4 14.5 0.00 0.00 0.00 87 1003.5
20200227090053 3 276 6.4 11.3 0.00 0.00 0.00 86 1004.6
20200227085714 3 225 8.0 14.5 0.00 0.00 0.00 87 1003.6
20200227085207 3 218 8.0 17.7 0.00 0.00 0.00 87 1003.7
20200227084715 3 269 8.0 17.7 0.00 0.00 0.00 87 1003.9
20200227084640 3 219 8.0 16.1 0.00 0.00 0.00 86 1004.9
20200227084207 3 271 8.0 17.7 0.00 0.00 0.00 86 1004.0
20200227083706 3 221 8.0 14.5 0.00 0.00 0.00 86 1004.1
20200227083207 3 232 8.0 16.1 0.00 0.00 0.00 86 1004.2
20200227083118 3 227 6.4 12.9 0.00 0.00 0.00 86 1005.3
20200227082707 3 225 9.7 16.1 0.00 0.00 0.00 86 1004.5
20200227082209 3 222 9.7 17.7 0.00 0.00 0.00 86 1004.6
20200227081707 3 290 9.7 17.7 0.00 0.00 0.00 86 1004.7
20200227081524 3 205 9.7 16.1 0.00 0.00 0.00 87 1005.7
20200227081207 3 253 9.7 17.7 0.00 0.00 0.00 86 1004.8
20200227080717 3 265 8.0 14.5 0.00 0.00 0.00 87 1004.9
20200227080207 3 217 8.0 14.5 0.00 0.00 0.00 87 1005.2
20200227080006 2 241 8.0 14.5 0.00 0.00 0.00 87 1006.2
20200227075706 3 227 9.7 14.5 0.00 0.03 0.00 87 1005.4
20200227075207 3 248 8.0 17.7 0.00 0.03 0.00 87 1005.4
20200227074706 3 272 8.0 17.7 0.00 0.03 0.00 87 1005.5
20200227074207 3 241 8.0 19.3 0.00 0.03 0.00 87 1005.6
20200227073708 3 245 8.0 19.3 0.00 0.03 0.00 87 1005.7
20200227073210 2 269 8.0 19.3 0.00 0.05 0.00 87 1006.7
20200227073208 3 211 9.7 19.3 0.00 0.03 0.00 87 1005.7
20200227072706 3 286 8.0 16.1 0.00 0.05 0.00 87 1005.8
20200227072208 3 232 8.0 20.9 0.00 0.05 0.00 87 1005.9
20200227071709 3 231 9.7 20.9 0.00 0.05 0.00 87 1005.9
20200227071207 3 276 8.0 16.1 0.00 0.05 0.00 87 1006.0
20200227070706 3 200 8.0 14.5 0.00 0.05 0.00 87 1006.1
20200227070207 3 230 8.0 12.9 0.00 0.05 0.00 87 1006.1
20200227070113 2 263 6.4 12.9 0.00 0.05 0.00 87 1007.1
20200227065712 3 221 8.0 12.9 0.00 0.05 0.00 87 1006.1
20200227065210 3 240 6.4 12.9 0.00 0.05 0.00 87 1006.1
20200227064719 3 238 6.4 17.7 0.00 0.05 0.00 87 1006.2
20200227064508 2 280 8.0 12.9 0.00 0.05 0.00 87 1007.2
20200227064209 3 224 6.4 17.7 0.00 0.05 0.00 87 1006.3
20200227063706 3 238 8.0 17.7 0.00 0.05 0.00 87 1006.3
20200227063207 3 221 6.4 14.5 0.00 0.05 0.00 87 1006.4
20200227063012 2 250 6.4 17.7 0.00 0.05 0.00 86 1007.5
20200227062729 3 275 6.4 12.9 0.00 0.05 0.00 86 1006.4
20200227062207 3 269 6.4 12.9 0.00 0.05 0.00 86 1006.4
20200227061716 3 277 8.0 17.7 0.00 0.05 0.00 86 1006.4
20200227061552 2 279 6.4 14.5 0.00 0.05 0.00 86 1007.4
20200227061207 3 289 8.0 17.7 0.00 0.05 0.00 86 1006.4
20200227060707 3 270 8.0 19.3 0.00 0.05 0.00 86 1006.4
20200227060207 3 266 8.0 19.3 0.00 0.05 0.00 86 1006.5
20200227060055 2 279 4.8 24.1 0.00 0.05 0.00 86 1007.6
20200227055706 3 270 8.0 14.5 0.00 0.05 0.00 86 1006.6
20200227055207 3 271 8.0 14.5 0.00 0.05 0.00 86 1006.7
20200227054715 3 275 8.0 20.9 0.00 0.05 0.00 86 1006.8
20200227054549 2 279 8.0 16.1 0.00 0.05 0.00 86 1007.8
20200227054207 3 234 9.7 20.9 0.00 0.05 0.00 86 1006.9
20200227053713 3 264 9.7 20.9 0.00 0.05 0.00 86 1007.0
20200227053221 3 231 9.7 16.1 0.00 0.05 0.00 87 1007.1
20200227053041 3 284 8.0 17.7 0.00 0.05 0.00 87 1008.1
20200227052727 3 237 9.7 16.1 0.00 0.05 0.00 87 1007.1
20200227052207 3 235 8.0 16.1 0.00 0.05 0.00 87 1007.1
20200227051742 3 241 6.4 16.1 0.00 0.05 0.00 87 1008.2
20200227051713 3 246 8.0 19.3 0.00 0.05 0.00 87 1007.2
20200227051207 3 264 9.7 19.3 0.00 0.05 0.00 87 1007.2
20200227050706 3 205 9.7 19.3 0.00 0.05 0.00 87 1007.3
20200227050207 3 228 9.7 17.7 0.00 0.05 0.00 87 1007.3
20200227050047 2 231 6.4 17.7 0.00 0.05 0.00 87 1008.4
20200227045729 3 285 9.7 16.1 0.00 0.05 0.00 87 1007.3
20200227045207 3 275 8.0 16.1 0.00 0.05 0.00 87 1007.5
20200227044706 3 229 8.0 16.1 0.00 0.05 0.00 87 1007.5
20200227044553 3 291 6.4 16.1 0.00 0.05 0.00 87 1008.5
20200227044207 3 255 8.0 17.7 0.00 0.05 0.00 86 1007.6
20200227043712 3 214 9.7 17.7 0.00 0.05 0.00 86 1007.7
20200227043220 3 255 9.7 17.7 0.00 0.05 0.00 86 1007.7
20200227043010 3 256 8.0 19.3 0.00 0.05 0.00 86 1008.7
20200227042706 3 290 9.7 17.7 0.00 0.05 0.00 86 1007.6
20200227042207 3 262 8.0 16.1 0.00 0.05 0.00 86 1007.7
20200227041707 3 271 9.7 14.5 0.00 0.05 0.00 86 1007.7
20200227041550 3 267 8.0 14.5 0.00 0.05 0.00 86 1008.8
20200227041207 3 283 9.7 14.5 0.00 0.05 0.00 86 1007.8
20200227040707 3 279 8.0 14.5 0.00 0.05 0.00 86 1007.8
20200227040207 3 273 6.4 17.7 0.00 0.05 0.00 87 1007.8
20200227040020 3 286 6.4 14.5 0.00 0.05 0.00 87 1008.8
20200227035706 3 240 6.4 17.7 0.00 0.05 0.00 87 1007.8
20200227035207 3 282 8.0 17.7 0.00 0.05 0.00 87 1007.9
20200227034706 3 268 8.0 17.7 0.00 0.05 0.00 86 1008.0
20200227034624 2 277 8.0 19.3 0.00 0.05 0.00 86 1009.0
20200227034206 3 271 6.4 11.3 0.00 0.05 0.00 87 1008.0
20200227033711 3 253 8.0 16.1 0.00 0.05 0.00 86 1007.9
20200227033208 3 269 8.0 16.1 0.00 0.05 0.00 86 1008.0
20200227033059 2 262 6.4 14.5 0.00 0.05 0.00 86 1009.0
20200227032713 3 212 8.0 16.1 0.00 0.05 0.00 86 1007.9
20200227032207 3 248 8.0 14.5 0.00 0.05 0.00 86 1008.0
20200227031706 3 247 8.0 14.5 0.00 0.05 0.00 86 1008.1
20200227031651 3 250 8.0 14.5 0.00 0.05 0.00 86 1009.1
20200227031207 3 228 6.4 17.7 0.00 0.05 0.00 86 1008.1
20200227030706 3 211 6.4 17.7 0.00 0.05 0.00 85 1008.0
20200227030207 3 276 8.0 17.7 0.00 0.05 0.00 85 1008.1
20200227025720 3 259 8.0 16.1 0.00 0.05 0.00 85 1008.0
20200227025207 3 219 8.0 16.1 0.00 0.05 0.00 85 1008.1
20200227024706 3 279 9.7 16.1 0.00 0.05 0.00 85 1008.1
20200227024549 3 261 8.0 17.7 0.00 0.05 0.00 85 1009.2
20200227024207 3 281 9.7 19.3 0.00 0.05 0.00 85 1008.2
20200227023713 3 265 9.7 19.3 0.00 0.05 0.00 85 1008.2
20200227023206 3 275 9.7 19.3 0.00 0.05 0.00 86 1008.2
20200227023107 3 277 8.0 19.3 0.00 0.05 0.00 86 1009.3
20200227022706 3 260 8.0 14.5 0.00 0.05 0.00 87 1008.3
20200227022207 3 200 6.4 14.5 0.00 0.05 0.00 87 1008.4
20200227021716 3 245 6.4 14.5 0.00 0.05 0.00 87 1008.4
20200227021629 3 267 6.4 14.5 0.00 0.05 0.00 87 1009.4
20200227021206 3 202 6.4 12.9 0.00 0.05 0.00 87 1008.4
20200227020709 3 276 6.4 12.9 0.00 0.05 0.00 88 1008.5
20200227020206 3 233 6.4 12.9 0.00 0.05 0.00 88 1008.4
20200227020039 2 294 6.4 11.3 0.00 0.05 0.00 88 1009.5
20200227015706 3 259 6.4 11.3 0.00 0.05 0.00 88 1008.5
20200227015207 3 256 6.4 11.3 0.00 0.05 0.00 88 1008.6
20200227014715 3 202 6.4 11.3 0.00 0.05 0.00 88 1008.5
20200227014207 3 268 6.4 11.3 0.00 0.05 0.00 88 1008.6
20200227013706 3 242 4.8 11.3 0.00 0.05 0.00 88 1008.7
20200227013208 3 242 4.8 11.3 0.00 0.05 0.00 87 1008.7
20200227013141 2 237 4.8 11.3 0.00 0.05 0.00 87 1009.8
20200227012710 3 276 6.4 12.9 0.00 0.05 0.00 87 1008.7
20200227012208 3 267 6.4 12.9 0.00 0.05 0.00 87 1008.6
20200227011707 3 215 6.4 12.9 0.00 0.05 0.00 86 1008.7
20200227011653 3 288 6.4 11.3 0.00 0.05 0.00 86 1009.7
20200227011207 3 231 6.4 11.3 0.00 0.05 0.00 85 1008.6
20200227010707 3 243 4.8 11.3 0.00 0.05 0.00 85 1008.6
20200227010209 3 240 4.8 9.7 0.00 0.05 0.00 84 1009.8
20200227010206 3 295 4.8 11.3 0.00 0.05 0.00 84 1008.8
20200227005706 3 236 6.4 11.3 0.00 0.05 0.00 84 1008.7
20200227005206 3 260 6.4 12.9 0.00 0.05 0.00 84 1008.7
20200227004706 3 232 6.4 14.5 0.00 0.05 0.00 84 1008.7
20200227004502 3 224 3.2 12.9 0.00 0.15 0.00 84 1009.8
20200227004213 3 266 6.4 14.5 0.00 0.05 0.00 83 1008.7
20200227003706 3 240 6.4 14.5 0.00 0.05 0.00 83 1008.6
20200227003207 3 288 6.4 14.5 0.00 0.05 0.00 83 1008.6
20200227002706 3 268 6.4 16.1 0.00 0.05 0.00 83 1008.6
20200227002212 3 284 8.0 16.1 0.00 0.08 0.00 83 1008.5
20200227001706 3 272 8.0 16.1 0.00 0.08 0.00 83 1008.5
20200227001507 3 286 8.0 22.5 0.00 0.15 0.00 83 1009.5
20200227001209 3 257 8.0 17.7 0.00 0.13 0.00 83 1008.5
20200227000708 3 276 8.0 17.7 0.00 0.15 0.00 83 1008.5
20200227000310 3 285 6.4 17.7 0.00 0.15 0.00 83 1009.5
20200227000209 3 280 9.7 17.7 0.00 0.15 0.00 83 1008.5
20200226235708 3 266 9.7 19.3 0.00 0.18 0.00 83 1008.5
20200226235207 3 264 9.7 19.3 0.00 0.20 0.00 84 1008.4
20200226234706 3 279 9.7 19.3 0.00 0.20 0.00 83 1008.4
20200226234650 3 279 9.7 19.3 0.00 0.23 0.00 83 1009.4
20200226234207 3 269 8.0 14.5 0.00 0.20 0.00 84 1008.4
20200226233723 3 275 6.4 14.5 0.00 0.23 0.00 84 1008.4
20200226233219 3 273 4.8 12.9 0.00 0.23 0.00 84 1008.4
20200226233206 3 271 4.8 11.3 0.00 0.23 0.00 84 1009.4
20200226232709 3 285 4.8 14.5 0.00 0.23 0.00 85 1008.5
20200226232207 3 277 4.8 14.5 0.00 0.23 0.00 85 1008.6
20200226231709 3 277 6.4 14.5 0.00 0.23 0.00 85 1008.6
20200226231648 3 284 4.8 14.5 0.00 0.23 0.00 84 1009.5
20200226231207 3 270 6.4 12.9 0.00 0.23 0.00 85 1008.5
20200226230707 3 294 6.4 12.9 0.00 0.23 0.00 84 1008.5
20200226230207 3 279 4.8 11.3 0.00 0.23 0.23 84 1008.4
20200226230112 3 239 4.8 12.9 0.00 0.23 0.00 84 1009.5
20200226225706 3 277 4.8 11.3 0.00 0.23 0.23 84 1008.4
20200226225207 3 252 4.8 9.7 0.00 0.23 0.23 83 1008.5
20200226224716 3 240 4.8 16.1 0.00 0.23 0.23 83 1008.4
20200226224620 3 279 3.2 11.3 0.00 0.23 0.23 83 1009.3
20200226224207 3 281 6.4 16.1 0.00 0.23 0.23 82 1008.4
20200226223710 3 261 8.0 17.7 0.00 0.23 0.23 82 1008.4
20200226223222 3 267 9.7 17.7 0.00 0.23 0.23 82 1008.3
20200226223112 3 287 8.0 19.3 0.00 0.23 0.23 82 1009.2
20200226222708 3 261 9.7 16.1 0.00 0.23 0.23 82 1008.4
20200226222207 3 271 9.7 16.1 0.00 0.23 0.23 82 1008.3
20200226221706 3 302 9.7 17.7 0.00 0.23 0.23 82 1008.4
20200226221557 3 284 11.3 19.3 0.00 0.23 0.23 82 1009.3
20200226221207 3 259 8.0 17.7 0.00 0.23 0.23 82 1008.3
20200226220706 3 279 6.4 17.7 0.00 0.23 0.23 82 1008.3
20200226220207 3 292 8.0 17.7 0.00 0.23 0.23 82 1008.3
20200226220037 3 280 4.8 17.7 0.00 0.23 0.23 82 1009.3
20200226215706 3 285 8.0 17.7 0.00 0.23 0.23 82 1008.3
20200226215208 3 272 8.0 14.5 0.00 0.23 0.23 82 1008.3
20200226214707 3 284 8.0 16.1 0.00 0.23 0.23 82 1008.2
20200226214540 3 269 6.4 14.5 0.00 0.33 0.23 82 1009.1
20200226214209 3 287 8.0 16.1 0.00 0.23 0.23 82 1008.2
20200226213729 3 275 8.0 14.5 0.00 0.23 0.23 82 1008.1
20200226213207 3 281 6.4 14.5 0.00 0.23 0.23 82 1008.2
20200226213114 3 267 4.8 14.5 0.00 0.33 0.23 82 1009.1
20200226212707 3 283 4.8 14.5 0.00 0.23 0.23 82 1008.1
20200226212208 3 270 4.8 14.5 0.00 0.28 0.23 82 1008.1
20200226211707 3 274 6.4 12.9 0.00 0.30 0.23 82 1008.0
20200226211634 3 273 3.2 14.5 0.00 0.33 0.23 82 1008.9
20200226211207 3 274 8.0 19.3 0.00 0.30 0.23 82 1007.9
20200226210707 3 272 9.7 19.3 0.00 0.33 0.23 82 1008.0
20200226210208 3 257 9.7 19.3 0.00 0.33 0.23 83 1007.8
20200226210108 3 264 9.7 19.3 0.00 0.33 0.23 83 1008.9
20200226205713 3 271 9.7 16.1 0.00 0.33 0.23 83 1007.9
20200226205207 3 281 8.0 16.1 0.00 0.33 0.23 84 1007.9
20200226204706 2 271 4.8 11.3 0.00 0.33 0.23 86 1007.8
20200226204553 2 283 4.8 11.3 0.00 0.33 0.23 86 1008.8
20200226204208 2 265 4.8 12.9 0.00 0.33 0.23 86 1007.7
20200226203717 2 253 4.8 12.9 0.00 0.33 0.23 85 1007.8
20200226203207 2 238 6.4 14.5 0.00 0.33 0.23 85 1007.7
20200226203115 2 240 4.8 12.9 0.00 0.33 0.23 84 1008.7
20200226202734 3 205 6.4 14.5 0.00 0.33 0.23 84 1007.6
20200226202207 3 288 6.4 17.7 0.00 0.33 0.23 83 1007.6
20200226201706 3 228 8.0 17.7 0.00 0.33 0.23 82 1007.6
20200226201548 2 288 3.2 17.7 0.00 0.33 0.23 82 1008.6
20200226201207 3 220 8.0 17.7 0.00 0.33 0.23 82 1007.6
20200226200712 3 273 8.0 22.5 0.00 0.33 0.23 82 1007.6
20200226200207 3 296 9.7 22.5 0.00 0.33 0.23 81 1007.5
20200226200105 2 267 6.4 19.3 0.00 0.33 0.23 81 1008.5
20200226195725 3 272 9.7 22.5 0.00 0.33 0.23 81 1007.6
20200226195217 3 222 9.7 17.7 0.00 0.33 0.23 81 1007.5
20200226194706 3 284 9.7 17.7 0.00 0.33 0.23 81 1007.5
20200226194206 3 276 8.0 14.5 0.00 0.33 0.23 81 1007.5
20200226193706 3 255 8.0 16.1 0.00 0.33 0.23 80 1007.3
20200226193207 3 269 9.7 19.3 0.00 0.33 0.23 80 1007.3
20200226193106 3 272 8.0 16.1 0.00 0.33 0.23 80 1008.2
20200226192706 3 269 9.7 19.3 0.00 0.33 0.23 80 1007.2
20200226192207 3 294 9.7 17.7 0.00 0.33 0.23 80 1007.2
20200226191717 3 277 9.7 17.7 0.00 0.33 0.23 80 1007.2
20200226191516 3 275 11.3 17.7 0.00 0.33 0.23 80 1008.0
20200226191207 3 284 8.0 17.7 0.00 0.33 0.23 80 1007.0
20200226190706 3 230 8.0 17.7 0.00 0.33 0.23 80 1007.0
20200226190207 3 265 9.7 17.7 0.00 0.33 0.23 79 1006.9
20200226190025 3 291 8.0 20.9 0.00 0.33 0.23 79 1007.8
20200226185706 3 275 11.3 19.3 0.00 0.33 0.23 79 1006.8
20200226185214 3 288 11.3 19.3 0.00 0.33 0.23 79 1006.8
20200226184714 3 258 9.7 16.1 0.00 0.33 0.23 79 1006.7
20200226184625 3 259 9.7 19.3 0.00 0.33 0.23 79 1007.7
20200226184207 4 271 9.7 20.9 0.00 0.33 0.23 79 1006.8
20200226183714 3 279 9.7 20.9 0.00 0.33 0.23 79 1006.7
20200226183207 4 286 11.3 20.9 0.00 0.33 0.23 79 1006.6
20200226183013 3 275 9.7 27.4 0.00 0.33 0.23 79 1007.5
20200226182706 4 292 9.7 20.9 0.00 0.33 0.23 79 1006.5
20200226182207 4 297 8.0 20.9 0.00 0.33 0.23 80 1006.5
20200226181710 3 284 6.4 14.5 0.00 0.33 0.23 81 1006.4
20200226181519 3 288 6.4 16.1 0.00 0.33 0.23 81 1007.2
20200226181207 3 284 4.8 12.9 0.00 0.33 0.23 82 1006.3
20200226180720 3 251 4.8 12.9 0.00 0.33 0.23 82 1006.2
20200226180207 4 275 4.8 11.3 0.00 0.33 0.23 83 1006.2
20200226180122 3 273 4.8 9.7 0.00 0.33 0.23 83 1007.0
20200226175706 4 222 4.8 12.9 0.00 0.33 0.23 82 1006.0
20200226175208 4 263 4.8 14.5 0.00 0.33 0.23 82 1005.9
20200226174706 4 290 6.4 14.5 0.00 0.33 0.23 82 1005.8
20200226174207 4 286 6.4 12.9 0.00 0.33 0.23 82 1005.7
20200226173727 3 289 6.4 9.7 0.00 0.33 0.23 82 1005.6
20200226173207 3 289 4.8 9.7 0.00 0.33 0.23 81 1005.5
20200226173032 3 280 4.8 11.3 0.00 0.33 0.23 81 1006.3
20200226172706 3 242 4.8 9.7 0.00 0.33 0.23 80 1005.3
20200226172207 3 244 4.8 11.3 0.00 0.33 0.23 80 1005.2
20200226171713 4 273 4.8 11.3 0.00 0.33 0.23 79 1005.1
20200226171548 3 283 3.2 12.9 0.00 0.33 0.23 78 1006.0
20200226171206 4 284 6.4 11.3 0.00 0.33 0.23 78 1005.1
20200226170709 4 277 6.4 12.9 0.00 0.33 0.23 77 1005.0
20200226170207 4 277 6.4 17.7 0.00 0.33 0.23 76 1005.0
20200226170107 4 281 4.8 12.9 0.00 0.33 0.23 75 1005.8
20200226165715 4 261 6.4 20.9 0.00 0.33 0.23 75 1004.9
20200226165207 5 286 8.0 20.9 0.00 0.33 0.23 74 1004.8
20200226164706 5 233 8.0 20.9 0.00 0.33 0.23 73 1004.7
20200226164521 4 240 8.0 16.1 0.00 0.33 0.23 73 1005.6
20200226164207 5 288 6.4 20.9 0.00 0.33 0.23 73 1004.5
20200226163709 5 284 8.0 20.9 0.00 0.33 0.23 72 1004.4
20200226163208 5 263 9.7 20.9 0.00 0.33 0.23 71 1004.4
20200226163012 5 271 12.9 20.9 0.00 0.33 0.23 71 1005.2
20200226162708 5 283 8.0 19.3 0.00 0.33 0.23 71 1004.1
20200226162207 5 295 9.7 19.3 0.00 0.33 0.23 71 1004.2
20200226161706 5 290 8.0 19.3 0.00 0.33 0.23 71 1004.1
20200226161550 5 289 8.0 19.3 0.00 0.33 0.23 71 1005.0
20200226161207 5 299 6.4 17.7 0.00 0.33 0.23 71 1004.1
20200226160709 5 279 8.0 17.7 0.00 0.33 0.23 70 1004.0
20200226160207 5 273 9.7 17.7 0.00 0.33 0.23 70 1003.9
20200226160122 5 277 8.0 17.7 0.00 0.33 0.23 69 1004.8
20200226155706 5 232 9.7 24.1 0.00 0.33 0.23 69 1003.9
20200226155207 5 238 9.7 24.1 0.00 0.33 0.23 69 1003.8
20200226154728 5 275 9.7 24.1 0.00 0.33 0.23 70 1003.7
20200226154621 5 287 6.4 24.1 0.00 0.33 0.23 70 1004.6
20200226154207 5 262 11.3 22.5 0.00 0.33 0.23 69 1003.6
20200226153708 5 281 12.9 22.5 0.00 0.33 0.23 71 1003.4
20200226153207 5 271 12.9 22.5 0.00 0.33 0.23 70 1003.3
20200226153047 5 273 12.9 24.1 0.00 0.33 0.23 70 1004.2
20200226152706 5 287 12.9 20.9 0.00 0.33 0.23 70 1003.3
20200226152228 5 246 11.3 20.9 0.00 0.33 0.23 70 1003.3
20200226151707 5 271 11.3 20.9 0.00 0.33 0.23 70 1003.2
20200226151608 5 279 11.3 20.9 0.00 0.33 0.23 70 1004.1
20200226151209 5 268 11.3 20.9 0.00 0.33 0.23 70 1003.1
20200226150707 5 238 9.7 29.0 0.00 0.33 0.23 69 1003.1
20200226150207 6 281 11.3 29.0 0.00 0.33 0.23 69 1003.0
20200226150059 5 292 8.0 29.0 0.00 0.33 0.23 70 1003.9
20200226145707 6 272 11.3 29.0 0.00 0.33 0.23 70 1003.0
20200226145207 6 256 9.7 20.9 0.00 0.33 0.23 70 1002.9
20200226144708 6 279 8.0 19.3 0.00 0.33 0.23 70 1002.9
20200226144551 5 275 9.7 20.9 0.00 0.36 0.23 69 1003.7
20200226144207 6 296 9.7 20.9 0.00 0.33 0.23 70 1002.8
20200226143709 5 267 11.3 20.9 0.00 0.33 0.23 69 1002.7
20200226143206 5 268 12.9 20.9 0.00 0.33 0.23 69 1002.6
20200226143129 5 279 8.0 25.7 0.00 0.36 0.23 69 1003.5
20200226142706 6 278 11.3 20.9 0.00 0.33 0.23 69 1002.7
20200226142208 5 283 11.3 20.9 0.00 0.36 0.23 71 1002.6
20200226141707 5 285 12.9 20.9 0.00 0.36 0.23 70 1002.5
20200226141606 5 254 12.9 24.1 0.00 0.36 0.23 69 1003.3
20200226141209 5 274 12.9 20.9 0.00 0.36 0.23 70 1002.5
20200226140707 5 275 11.3 24.1 0.00 0.36 0.23 70 1002.3
20200226140207 5 265 12.9 24.1 0.00 0.36 0.23 69 1002.2
20200226140024 5 232 8.0 24.1 0.00 0.36 0.23 71 1003.1
20200226135707 5 277 14.5 24.1 0.00 0.36 0.23 69 1002.2
20200226135207 5 275 14.5 25.7 0.00 0.36 0.23 70 1002.1
20200226134707 5 271 12.9 25.7 0.00 0.36 0.23 71 1002.0
20200226134206 5 272 12.9 25.7 0.00 0.38 0.23 72 1002.0
20200226133708 5 271 11.3 19.3 0.00 0.38 0.23 74 1001.8
20200226133207 5 282 9.7 19.3 0.00 0.38 0.23 75 1001.7
20200226132706 5 277 9.7 19.3 0.00 0.38 0.23 77 1001.7
20200226132207 5 285 9.7 19.3 0.00 0.41 0.23 76 1001.7
20200226131707 5 274 9.7 16.1 0.00 0.41 0.23 78 1001.6
20200226131559 4 280 8.0 16.1 0.00 0.43 0.23 79 1002.4
20200226131207 5 269 11.3 22.5 0.00 0.43 0.23 79 1001.6
20200226130707 5 267 9.7 24.1 0.00 0.43 0.23 80 1001.7
20200226130207 5 288 11.3 24.1 0.00 0.43 0.23 81 1001.7
20200226130008 4 273 11.3 24.1 0.00 0.43 0.23 82 1002.5
20200226125713 5 286 14.5 24.1 0.00 0.43 0.23 80 1001.6
20200226125207 5 257 14.5 22.5 0.00 0.43 0.23 79 1001.6
20200226124707 5 262 14.5 24.1 0.00 0.43 0.23 75 1001.5
20200226124526 5 265 14.5 22.5 0.00 0.48 0.23 73 1002.3
20200226124207 6 259 14.5 24.1 0.00 0.43 0.23 71 1001.3
20200226123706 6 273 16.1 24.1 0.00 0.43 0.23 71 1001.4